sensor_id;sensor_type;location;lat;lon;timestamp;P1;durP1;ratioP1;P2;durP2;ratioP2
17488;SDS011;8861;52.644;4.734;2022-09-29T00:01:05;5.53;;;4.93;;
17488;SDS011;8861;52.644;4.734;2022-09-29T00:03:32;6.93;;;5.37;;
17488;SDS011;8861;52.644;4.734;2022-09-29T00:05:59;5.57;;;4.77;;
17488;SDS011;8861;52.644;4.734;2022-09-29T00:08:26;8.07;;;6.20;;
17488;SDS011;8861;52.644;4.734;2022-09-29T00:10:55;7.27;;;6.20;;
17488;SDS011;8861;52.644;4.734;2022-09-29T00:13:22;7.57;;;6.27;;
17488;SDS011;8861;52.644;4.734;2022-09-29T00:15:57;6.73;;;5.50;;
17488;SDS011;8861;52.644;4.734;2022-09-29T00:18:26;6.87;;;5.60;;
17488;SDS011;8861;52.644;4.734;2022-09-29T00:20:57;6.50;;;5.80;;
17488;SDS011;8861;52.644;4.734;2022-09-29T00:23:25;6.30;;;5.17;;
17488;SDS011;8861;52.644;4.734;2022-09-29T00:26:00;6.47;;;5.37;;
17488;SDS011;8861;52.644;4.734;2022-09-29T00:28:29;5.00;;;4.50;;
17488;SDS011;8861;52.644;4.734;2022-09-29T00:30:58;5.23;;;4.73;;
17488;SDS011;8861;52.644;4.734;2022-09-29T00:33:27;6.60;;;5.43;;
17488;SDS011;8861;52.644;4.734;2022-09-29T00:35:56;6.40;;;5.30;;
17488;SDS011;8861;52.644;4.734;2022-09-29T00:38:24;5.10;;;4.50;;
17488;SDS011;8861;52.644;4.734;2022-09-29T00:40:51;5.70;;;5.10;;
17488;SDS011;8861;52.644;4.734;2022-09-29T00:43:19;5.80;;;4.90;;
17488;SDS011;8861;52.644;4.734;2022-09-29T00:45:48;7.43;;;5.87;;
17488;SDS011;8861;52.644;4.734;2022-09-29T00:48:20;7.80;;;6.20;;
17488;SDS011;8861;52.644;4.734;2022-09-29T00:50:54;6.63;;;5.90;;
17488;SDS011;8861;52.644;4.734;2022-09-29T00:53:22;7.00;;;5.70;;
17488;SDS011;8861;52.644;4.734;2022-09-29T00:55:52;6.23;;;5.63;;
17488;SDS011;8861;52.644;4.734;2022-09-29T00:58:24;6.60;;;5.60;;
17488;SDS011;8861;52.644;4.734;2022-09-29T01:00:55;6.40;;;5.37;;
17488;SDS011;8861;52.644;4.734;2022-09-29T01:03:25;6.13;;;5.50;;
17488;SDS011;8861;52.644;4.734;2022-09-29T01:05:57;7.10;;;5.93;;
17488;SDS011;8861;52.644;4.734;2022-09-29T01:08:27;6.60;;;5.50;;
17488;SDS011;8861;52.644;4.734;2022-09-29T01:11:01;8.23;;;6.60;;
17488;SDS011;8861;52.644;4.734;2022-09-29T01:13:30;6.60;;;5.97;;
17488;SDS011;8861;52.644;4.734;2022-09-29T01:15:58;7.60;;;6.63;;
17488;SDS011;8861;52.644;4.734;2022-09-29T01:18:27;8.00;;;6.87;;
17488;SDS011;8861;52.644;4.734;2022-09-29T01:20:56;9.03;;;7.43;;
17488;SDS011;8861;52.644;4.734;2022-09-29T01:29:46;8.47;;;7.10;;
17488;SDS011;8861;52.644;4.734;2022-09-29T01:32:38;8.57;;;7.30;;
17488;SDS011;8861;52.644;4.734;2022-09-29T01:35:29;9.10;;;7.17;;
17488;SDS011;8861;52.644;4.734;2022-09-29T01:38:06;8.27;;;6.83;;
17488;SDS011;8861;52.644;4.734;2022-09-29T01:40:46;10.37;;;7.50;;
17488;SDS011;8861;52.644;4.734;2022-09-29T01:43:19;9.00;;;7.30;;
17488;SDS011;8861;52.644;4.734;2022-09-29T01:45:52;8.57;;;7.13;;
17488;SDS011;8861;52.644;4.734;2022-09-29T01:48:27;7.93;;;7.10;;
17488;SDS011;8861;52.644;4.734;2022-09-29T01:50:59;8.93;;;7.00;;
17488;SDS011;8861;52.644;4.734;2022-09-29T01:53:32;7.77;;;6.67;;
17488;SDS011;8861;52.644;4.734;2022-09-29T01:56:02;7.90;;;7.10;;
17488;SDS011;8861;52.644;4.734;2022-09-29T01:58:34;8.03;;;6.80;;
17488;SDS011;8861;52.644;4.734;2022-09-29T02:01:08;7.20;;;6.47;;
17488;SDS011;8861;52.644;4.734;2022-09-29T02:03:40;7.30;;;6.50;;
17488;SDS011;8861;52.644;4.734;2022-09-29T02:06:09;7.90;;;6.33;;
17488;SDS011;8861;52.644;4.734;2022-09-29T02:08:42;6.53;;;5.83;;
17488;SDS011;8861;52.644;4.734;2022-09-29T02:11:14;7.17;;;6.40;;
17488;SDS011;8861;52.644;4.734;2022-09-29T02:13:44;7.23;;;6.40;;
17488;SDS011;8861;52.644;4.734;2022-09-29T02:16:28;6.90;;;6.20;;
17488;SDS011;8861;52.644;4.734;2022-09-29T02:18:58;7.80;;;7.00;;
17488;SDS011;8861;52.644;4.734;2022-09-29T02:21:28;8.03;;;6.57;;
17488;SDS011;8861;52.644;4.734;2022-09-29T02:23:55;8.03;;;6.27;;
17488;SDS011;8861;52.644;4.734;2022-09-29T02:26:22;7.53;;;6.30;;
17488;SDS011;8861;52.644;4.734;2022-09-29T02:28:51;7.40;;;6.33;;
17488;SDS011;8861;52.644;4.734;2022-09-29T02:31:20;7.80;;;6.60;;
17488;SDS011;8861;52.644;4.734;2022-09-29T02:33:47;7.37;;;6.47;;
17488;SDS011;8861;52.644;4.734;2022-09-29T02:36:20;7.30;;;6.30;;
17488;SDS011;8861;52.644;4.734;2022-09-29T02:38:55;7.80;;;7.00;;
17488;SDS011;8861;52.644;4.734;2022-09-29T02:41:29;7.73;;;6.37;;
17488;SDS011;8861;52.644;4.734;2022-09-29T02:44:10;7.17;;;6.43;;
17488;SDS011;8861;52.644;4.734;2022-09-29T02:46:57;7.03;;;6.17;;
17488;SDS011;8861;52.644;4.734;2022-09-29T02:49:41;7.47;;;6.20;;
17488;SDS011;8861;52.644;4.734;2022-09-29T02:52:21;7.70;;;6.73;;
17488;SDS011;8861;52.644;4.734;2022-09-29T02:54:58;7.63;;;6.50;;
17488;SDS011;8861;52.644;4.734;2022-09-29T02:57:31;7.77;;;6.53;;
17488;SDS011;8861;52.644;4.734;2022-09-29T03:00:04;7.70;;;6.60;;
17488;SDS011;8861;52.644;4.734;2022-09-29T03:02:34;9.13;;;7.27;;
17488;SDS011;8861;52.644;4.734;2022-09-29T03:05:02;8.07;;;6.17;;
17488;SDS011;8861;52.644;4.734;2022-09-29T03:07:31;7.30;;;6.40;;
17488;SDS011;8861;52.644;4.734;2022-09-29T03:09:58;8.10;;;6.63;;
17488;SDS011;8861;52.644;4.734;2022-09-29T03:12:25;8.03;;;6.70;;
17488;SDS011;8861;52.644;4.734;2022-09-29T03:14:52;9.33;;;6.97;;
17488;SDS011;8861;52.644;4.734;2022-09-29T03:17:19;7.33;;;6.17;;
17488;SDS011;8861;52.644;4.734;2022-09-29T03:19:46;8.27;;;6.70;;
17488;SDS011;8861;52.644;4.734;2022-09-29T03:22:13;7.53;;;6.63;;
17488;SDS011;8861;52.644;4.734;2022-09-29T03:24:41;7.73;;;6.10;;
17488;SDS011;8861;52.644;4.734;2022-09-29T03:27:08;7.30;;;6.10;;
17488;SDS011;8861;52.644;4.734;2022-09-29T03:29:35;8.00;;;6.40;;
17488;SDS011;8861;52.644;4.734;2022-09-29T03:32:03;6.63;;;5.70;;
17488;SDS011;8861;52.644;4.734;2022-09-29T03:34:30;6.77;;;6.00;;
17488;SDS011;8861;52.644;4.734;2022-09-29T03:36:58;7.10;;;6.07;;
17488;SDS011;8861;52.644;4.734;2022-09-29T03:39:25;7.40;;;6.13;;
17488;SDS011;8861;52.644;4.734;2022-09-29T03:41:54;6.83;;;5.90;;
17488;SDS011;8861;52.644;4.734;2022-09-29T03:44:20;7.10;;;6.40;;
17488;SDS011;8861;52.644;4.734;2022-09-29T03:46:47;7.83;;;6.17;;
17488;SDS011;8861;52.644;4.734;2022-09-29T03:49:14;7.00;;;5.90;;
17488;SDS011;8861;52.644;4.734;2022-09-29T03:51:42;7.20;;;6.30;;
17488;SDS011;8861;52.644;4.734;2022-09-29T03:54:09;7.37;;;6.20;;
17488;SDS011;8861;52.644;4.734;2022-09-29T03:56:37;6.67;;;5.70;;
17488;SDS011;8861;52.644;4.734;2022-09-29T03:59:06;7.07;;;6.20;;
17488;SDS011;8861;52.644;4.734;2022-09-29T04:01:36;7.37;;;6.20;;
17488;SDS011;8861;52.644;4.734;2022-09-29T04:04:03;8.33;;;6.30;;
17488;SDS011;8861;52.644;4.734;2022-09-29T04:06:30;7.27;;;6.07;;
17488;SDS011;8861;52.644;4.734;2022-09-29T04:08:58;7.70;;;6.13;;
17488;SDS011;8861;52.644;4.734;2022-09-29T04:11:25;7.50;;;6.20;;
17488;SDS011;8861;52.644;4.734;2022-09-29T04:13:52;8.73;;;6.60;;
17488;SDS011;8861;52.644;4.734;2022-09-29T04:16:20;8.30;;;6.40;;
17488;SDS011;8861;52.644;4.734;2022-09-29T04:18:47;8.23;;;6.30;;
17488;SDS011;8861;52.644;4.734;2022-09-29T04:21:14;7.00;;;6.03;;
17488;SDS011;8861;52.644;4.734;2022-09-29T04:23:41;7.23;;;6.37;;
17488;SDS011;8861;52.644;4.734;2022-09-29T04:26:08;9.00;;;6.60;;
17488;SDS011;8861;52.644;4.734;2022-09-29T04:28:35;6.53;;;5.60;;
17488;SDS011;8861;52.644;4.734;2022-09-29T04:31:03;7.13;;;6.27;;
17488;SDS011;8861;52.644;4.734;2022-09-29T04:33:31;7.33;;;5.67;;
17488;SDS011;8861;52.644;4.734;2022-09-29T04:35:59;7.63;;;5.93;;
17488;SDS011;8861;52.644;4.734;2022-09-29T04:38:26;6.77;;;5.90;;
17488;SDS011;8861;52.644;4.734;2022-09-29T04:40:53;7.00;;;6.07;;
17488;SDS011;8861;52.644;4.734;2022-09-29T04:43:20;8.40;;;6.27;;
17488;SDS011;8861;52.644;4.734;2022-09-29T04:45:47;7.30;;;6.47;;
17488;SDS011;8861;52.644;4.734;2022-09-29T04:48:14;7.53;;;6.60;;
17488;SDS011;8861;52.644;4.734;2022-09-29T04:50:42;7.43;;;6.30;;
17488;SDS011;8861;52.644;4.734;2022-09-29T04:53:10;8.10;;;6.40;;
17488;SDS011;8861;52.644;4.734;2022-09-29T04:55:40;7.67;;;6.30;;
17488;SDS011;8861;52.644;4.734;2022-09-29T04:58:07;7.70;;;6.17;;
17488;SDS011;8861;52.644;4.734;2022-09-29T05:00:34;8.43;;;6.27;;
17488;SDS011;8861;52.644;4.734;2022-09-29T05:03:00;8.13;;;6.57;;
17488;SDS011;8861;52.644;4.734;2022-09-29T05:05:27;7.70;;;6.20;;
17488;SDS011;8861;52.644;4.734;2022-09-29T05:07:56;7.63;;;6.60;;
17488;SDS011;8861;52.644;4.734;2022-09-29T05:10:23;8.63;;;6.87;;
17488;SDS011;8861;52.644;4.734;2022-09-29T05:12:50;8.17;;;6.70;;
17488;SDS011;8861;52.644;4.734;2022-09-29T05:15:18;9.30;;;7.23;;
17488;SDS011;8861;52.644;4.734;2022-09-29T05:17:45;7.60;;;6.30;;
17488;SDS011;8861;52.644;4.734;2022-09-29T05:20:12;7.73;;;6.27;;
17488;SDS011;8861;52.644;4.734;2022-09-29T05:22:40;7.17;;;6.10;;
17488;SDS011;8861;52.644;4.734;2022-09-29T05:25:09;8.20;;;6.83;;
17488;SDS011;8861;52.644;4.734;2022-09-29T05:27:36;7.70;;;6.40;;
17488;SDS011;8861;52.644;4.734;2022-09-29T05:30:04;7.97;;;6.90;;
17488;SDS011;8861;52.644;4.734;2022-09-29T05:32:31;7.33;;;6.43;;
17488;SDS011;8861;52.644;4.734;2022-09-29T05:34:58;8.43;;;7.00;;
17488;SDS011;8861;52.644;4.734;2022-09-29T05:37:27;10.70;;;7.60;;
17488;SDS011;8861;52.644;4.734;2022-09-29T05:39:54;8.93;;;7.10;;
17488;SDS011;8861;52.644;4.734;2022-09-29T05:42:22;9.47;;;7.23;;
17488;SDS011;8861;52.644;4.734;2022-09-29T05:44:51;9.37;;;7.43;;
17488;SDS011;8861;52.644;4.734;2022-09-29T05:47:18;10.47;;;7.63;;
17488;SDS011;8861;52.644;4.734;2022-09-29T05:49:46;9.10;;;7.20;;
17488;SDS011;8861;52.644;4.734;2022-09-29T05:52:13;9.10;;;7.30;;
17488;SDS011;8861;52.644;4.734;2022-09-29T05:54:40;9.93;;;8.07;;
17488;SDS011;8861;52.644;4.734;2022-09-29T05:57:07;9.60;;;7.60;;
17488;SDS011;8861;52.644;4.734;2022-09-29T05:59:36;9.37;;;7.70;;
17488;SDS011;8861;52.644;4.734;2022-09-29T06:02:03;9.10;;;7.27;;
17488;SDS011;8861;52.644;4.734;2022-09-29T06:04:30;9.60;;;7.07;;
17488;SDS011;8861;52.644;4.734;2022-09-29T06:06:57;9.93;;;7.80;;
17488;SDS011;8861;52.644;4.734;2022-09-29T06:09:24;9.43;;;7.80;;
17488;SDS011;8861;52.644;4.734;2022-09-29T06:11:51;9.17;;;7.33;;
17488;SDS011;8861;52.644;4.734;2022-09-29T06:14:18;9.40;;;7.60;;
17488;SDS011;8861;52.644;4.734;2022-09-29T06:16:46;9.37;;;7.17;;
17488;SDS011;8861;52.644;4.734;2022-09-29T06:19:14;9.37;;;7.50;;
17488;SDS011;8861;52.644;4.734;2022-09-29T06:21:41;9.60;;;7.70;;
17488;SDS011;8861;52.644;4.734;2022-09-29T06:24:08;10.10;;;8.43;;
17488;SDS011;8861;52.644;4.734;2022-09-29T06:26:35;10.77;;;8.23;;
17488;SDS011;8861;52.644;4.734;2022-09-29T06:29:02;9.17;;;7.50;;
17488;SDS011;8861;52.644;4.734;2022-09-29T06:31:29;8.80;;;7.40;;
17488;SDS011;8861;52.644;4.734;2022-09-29T06:33:59;9.33;;;7.60;;
17488;SDS011;8861;52.644;4.734;2022-09-29T06:36:27;8.90;;;7.33;;
17488;SDS011;8861;52.644;4.734;2022-09-29T06:39:14;9.23;;;7.67;;
17488;SDS011;8861;52.644;4.734;2022-09-29T06:41:42;8.63;;;7.17;;
17488;SDS011;8861;52.644;4.734;2022-09-29T06:44:12;10.53;;;8.17;;
17488;SDS011;8861;52.644;4.734;2022-09-29T06:46:39;9.60;;;7.87;;
17488;SDS011;8861;52.644;4.734;2022-09-29T06:49:08;8.60;;;7.13;;
17488;SDS011;8861;52.644;4.734;2022-09-29T06:51:36;9.63;;;7.33;;
17488;SDS011;8861;52.644;4.734;2022-09-29T06:54:03;8.03;;;7.17;;
17488;SDS011;8861;52.644;4.734;2022-09-29T06:56:30;8.13;;;7.07;;
17488;SDS011;8861;52.644;4.734;2022-09-29T06:58:57;7.57;;;6.70;;
17488;SDS011;8861;52.644;4.734;2022-09-29T07:01:24;8.47;;;7.30;;
17488;SDS011;8861;52.644;4.734;2022-09-29T07:03:51;8.00;;;7.00;;
17488;SDS011;8861;52.644;4.734;2022-09-29T07:06:19;8.37;;;7.17;;
17488;SDS011;8861;52.644;4.734;2022-09-29T07:08:46;8.77;;;7.50;;
17488;SDS011;8861;52.644;4.734;2022-09-29T07:11:18;8.07;;;7.03;;
17488;SDS011;8861;52.644;4.734;2022-09-29T07:13:45;7.57;;;6.63;;
17488;SDS011;8861;52.644;4.734;2022-09-29T07:16:12;8.37;;;6.67;;
17488;SDS011;8861;52.644;4.734;2022-09-29T07:18:40;7.30;;;6.17;;
17488;SDS011;8861;52.644;4.734;2022-09-29T07:21:09;8.27;;;6.70;;
17488;SDS011;8861;52.644;4.734;2022-09-29T07:23:41;6.47;;;5.77;;
17488;SDS011;8861;52.644;4.734;2022-09-29T07:26:08;7.27;;;6.30;;
17488;SDS011;8861;52.644;4.734;2022-09-29T07:28:37;6.17;;;5.57;;
17488;SDS011;8861;52.644;4.734;2022-09-29T07:31:04;6.33;;;5.67;;
17488;SDS011;8861;52.644;4.734;2022-09-29T07:33:33;7.30;;;6.50;;
17488;SDS011;8861;52.644;4.734;2022-09-29T07:36:00;6.53;;;5.73;;
17488;SDS011;8861;52.644;4.734;2022-09-29T07:38:27;7.77;;;6.83;;
17488;SDS011;8861;52.644;4.734;2022-09-29T07:40:59;7.20;;;6.10;;
17488;SDS011;8861;52.644;4.734;2022-09-29T07:43:27;6.63;;;5.80;;
17488;SDS011;8861;52.644;4.734;2022-09-29T07:45:55;7.60;;;6.33;;
17488;SDS011;8861;52.644;4.734;2022-09-29T07:48:24;7.30;;;6.53;;
17488;SDS011;8861;52.644;4.734;2022-09-29T07:50:52;7.20;;;6.50;;
17488;SDS011;8861;52.644;4.734;2022-09-29T07:53:25;6.40;;;5.80;;
17488;SDS011;8861;52.644;4.734;2022-09-29T07:55:52;6.07;;;5.47;;
17488;SDS011;8861;52.644;4.734;2022-09-29T07:58:20;5.93;;;5.33;;
17488;SDS011;8861;52.644;4.734;2022-09-29T08:00:51;5.10;;;4.57;;
17488;SDS011;8861;52.644;4.734;2022-09-29T08:03:19;5.40;;;4.90;;
17488;SDS011;8861;52.644;4.734;2022-09-29T08:05:46;5.27;;;4.77;;
17488;SDS011;8861;52.644;4.734;2022-09-29T08:08:13;5.70;;;4.93;;
17488;SDS011;8861;52.644;4.734;2022-09-29T08:10:40;5.00;;;4.50;;
17488;SDS011;8861;52.644;4.734;2022-09-29T08:13:07;5.33;;;4.83;;
17488;SDS011;8861;52.644;4.734;2022-09-29T08:15:36;5.03;;;4.53;;
17488;SDS011;8861;52.644;4.734;2022-09-29T08:18:02;4.97;;;4.47;;
17488;SDS011;8861;52.644;4.734;2022-09-29T08:20:29;4.47;;;4.07;;
17488;SDS011;8861;52.644;4.734;2022-09-29T08:22:56;5.00;;;4.50;;
17488;SDS011;8861;52.644;4.734;2022-09-29T08:25:23;5.63;;;5.00;;
17488;SDS011;8861;52.644;4.734;2022-09-29T08:27:52;5.40;;;4.90;;
17488;SDS011;8861;52.644;4.734;2022-09-29T08:30:19;6.87;;;6.17;;
17488;SDS011;8861;52.644;4.734;2022-09-29T08:32:51;8.23;;;6.93;;
17488;SDS011;8861;52.644;4.734;2022-09-29T08:35:18;8.03;;;6.93;;
17488;SDS011;8861;52.644;4.734;2022-09-29T08:37:45;7.60;;;6.63;;
17488;SDS011;8861;52.644;4.734;2022-09-29T08:40:13;7.73;;;6.93;;
17488;SDS011;8861;52.644;4.734;2022-09-29T08:42:42;7.83;;;7.03;;
17488;SDS011;8861;52.644;4.734;2022-09-29T08:45:17;11.37;;;9.80;;
17488;SDS011;8861;52.644;4.734;2022-09-29T08:47:51;8.47;;;7.47;;
17488;SDS011;8861;52.644;4.734;2022-09-29T08:50:28;10.37;;;8.63;;
17488;SDS011;8861;52.644;4.734;2022-09-29T08:53:00;9.63;;;8.23;;
17488;SDS011;8861;52.644;4.734;2022-09-29T08:55:34;8.47;;;7.67;;
17488;SDS011;8861;52.644;4.734;2022-09-29T08:58:12;7.77;;;6.97;;
17488;SDS011;8861;52.644;4.734;2022-09-29T09:00:44;11.40;;;9.57;;
17488;SDS011;8861;52.644;4.734;2022-09-29T09:03:43;9.57;;;8.10;;
17488;SDS011;8861;52.644;4.734;2022-09-29T09:06:28;7.53;;;6.73;;
17488;SDS011;8861;52.644;4.734;2022-09-29T09:09:13;6.57;;;5.70;;
17488;SDS011;8861;52.644;4.734;2022-09-29T09:11:57;6.37;;;5.73;;
17488;SDS011;8861;52.644;4.734;2022-09-29T09:14:42;5.87;;;5.30;;
17488;SDS011;8861;52.644;4.734;2022-09-29T09:17:21;6.57;;;5.87;;
17488;SDS011;8861;52.644;4.734;2022-09-29T09:20:01;5.93;;;5.33;;
17488;SDS011;8861;52.644;4.734;2022-09-29T09:22:41;5.80;;;5.03;;
17488;SDS011;8861;52.644;4.734;2022-09-29T09:25:18;5.97;;;5.30;;
17488;SDS011;8861;52.644;4.734;2022-09-29T09:28:02;5.70;;;5.10;;
17488;SDS011;8861;52.644;4.734;2022-09-29T09:30:34;5.00;;;4.47;;
17488;SDS011;8861;52.644;4.734;2022-09-29T09:33:05;4.17;;;3.77;;
17488;SDS011;8861;52.644;4.734;2022-09-29T09:35:43;4.23;;;3.83;;
17488;SDS011;8861;52.644;4.734;2022-09-29T09:38:15;4.20;;;3.80;;
17488;SDS011;8861;52.644;4.734;2022-09-29T09:40:46;3.60;;;3.30;;
17488;SDS011;8861;52.644;4.734;2022-09-29T09:43:17;3.03;;;2.73;;
17488;SDS011;8861;52.644;4.734;2022-09-29T09:45:48;5.07;;;4.57;;
17488;SDS011;8861;52.644;4.734;2022-09-29T09:48:20;6.50;;;5.80;;
17488;SDS011;8861;52.644;4.734;2022-09-29T09:50:53;5.37;;;4.73;;
17488;SDS011;8861;52.644;4.734;2022-09-29T09:53:21;4.70;;;4.20;;
17488;SDS011;8861;52.644;4.734;2022-09-29T09:55:57;4.93;;;4.30;;
17488;SDS011;8861;52.644;4.734;2022-09-29T09:58:42;3.93;;;3.53;;
17488;SDS011;8861;52.644;4.734;2022-09-29T10:01:30;3.60;;;3.30;;
17488;SDS011;8861;52.644;4.734;2022-09-29T10:03:58;4.00;;;3.60;;
17488;SDS011;8861;52.644;4.734;2022-09-29T10:06:27;5.70;;;4.60;;
17488;SDS011;8861;52.644;4.734;2022-09-29T10:08:55;4.40;;;4.00;;
17488;SDS011;8861;52.644;4.734;2022-09-29T10:11:22;16.33;;;12.63;;
17488;SDS011;8861;52.644;4.734;2022-09-29T10:13:56;13.53;;;10.93;;
17488;SDS011;8861;52.644;4.734;2022-09-29T10:16:27;10.97;;;9.70;;
17488;SDS011;8861;52.644;4.734;2022-09-29T10:18:59;10.23;;;8.03;;
17488;SDS011;8861;52.644;4.734;2022-09-29T10:21:37;8.60;;;7.17;;
17488;SDS011;8861;52.644;4.734;2022-09-29T10:24:19;16.60;;;12.60;;
17488;SDS011;8861;52.644;4.734;2022-09-29T10:26:49;16.47;;;12.33;;
17488;SDS011;8861;52.644;4.734;2022-09-29T10:29:23;12.30;;;9.53;;
17488;SDS011;8861;52.644;4.734;2022-09-29T10:31:58;9.73;;;8.07;;
17488;SDS011;8861;52.644;4.734;2022-09-29T10:34:31;14.60;;;10.50;;
17488;SDS011;8861;52.644;4.734;2022-09-29T10:37:01;11.63;;;9.50;;
17488;SDS011;8861;52.644;4.734;2022-09-29T10:39:30;9.43;;;8.13;;
17488;SDS011;8861;52.644;4.734;2022-09-29T10:41:59;8.40;;;6.90;;
17488;SDS011;8861;52.644;4.734;2022-09-29T10:44:31;9.27;;;7.43;;
17488;SDS011;8861;52.644;4.734;2022-09-29T10:46:59;7.90;;;6.83;;
17488;SDS011;8861;52.644;4.734;2022-09-29T10:49:26;8.67;;;6.70;;
17488;SDS011;8861;52.644;4.734;2022-09-29T10:51:59;7.80;;;6.83;;
17488;SDS011;8861;52.644;4.734;2022-09-29T10:54:31;7.57;;;5.97;;
17488;SDS011;8861;52.644;4.734;2022-09-29T10:56:59;7.57;;;5.83;;
17488;SDS011;8861;52.644;4.734;2022-09-29T10:59:44;6.77;;;5.20;;
17488;SDS011;8861;52.644;4.734;2022-09-29T11:02:15;4.47;;;4.07;;
17488;SDS011;8861;52.644;4.734;2022-09-29T11:04:47;4.73;;;4.20;;
17488;SDS011;8861;52.644;4.734;2022-09-29T11:07:16;4.27;;;3.80;;
17488;SDS011;8861;52.644;4.734;2022-09-29T11:09:43;3.50;;;3.20;;
17488;SDS011;8861;52.644;4.734;2022-09-29T11:12:24;4.57;;;3.87;;
17488;SDS011;8861;52.644;4.734;2022-09-29T11:14:53;4.70;;;4.20;;
17488;SDS011;8861;52.644;4.734;2022-09-29T11:17:22;3.97;;;3.57;;
17488;SDS011;8861;52.644;4.734;2022-09-29T11:19:51;4.33;;;3.93;;
17488;SDS011;8861;52.644;4.734;2022-09-29T11:22:25;3.93;;;3.60;;
17488;SDS011;8861;52.644;4.734;2022-09-29T11:25:05;3.90;;;3.50;;
17488;SDS011;8861;52.644;4.734;2022-09-29T11:30:48;4.57;;;3.57;;
17488;SDS011;8861;52.644;4.734;2022-09-29T11:33:26;3.80;;;3.40;;
17488;SDS011;8861;52.644;4.734;2022-09-29T11:36:02;3.20;;;2.90;;
17488;SDS011;8861;52.644;4.734;2022-09-29T11:38:46;3.50;;;3.00;;
17488;SDS011;8861;52.644;4.734;2022-09-29T11:41:48;3.30;;;3.00;;
17488;SDS011;8861;52.644;4.734;2022-09-29T11:44:28;3.10;;;2.80;;
17488;SDS011;8861;52.644;4.734;2022-09-29T11:47:19;3.23;;;2.40;;
17488;SDS011;8861;52.644;4.734;2022-09-29T11:50:08;2.33;;;2.13;;
17488;SDS011;8861;52.644;4.734;2022-09-29T11:52:55;1.70;;;1.60;;
17488;SDS011;8861;52.644;4.734;2022-09-29T11:55:45;1.80;;;1.70;;
17488;SDS011;8861;52.644;4.734;2022-09-29T11:58:32;1.90;;;1.80;;
17488;SDS011;8861;52.644;4.734;2022-09-29T12:01:23;1.60;;;1.50;;
17488;SDS011;8861;52.644;4.734;2022-09-29T12:04:13;1.73;;;1.63;;
17488;SDS011;8861;52.644;4.734;2022-09-29T12:06:52;1.60;;;1.50;;
17488;SDS011;8861;52.644;4.734;2022-09-29T12:09:34;1.67;;;1.57;;
17488;SDS011;8861;52.644;4.734;2022-09-29T12:12:27;1.30;;;1.20;;
17488;SDS011;8861;52.644;4.734;2022-09-29T12:15:11;1.53;;;1.43;;
17488;SDS011;8861;52.644;4.734;2022-09-29T12:17:47;1.47;;;1.37;;
17488;SDS011;8861;52.644;4.734;2022-09-29T12:20:19;1.30;;;1.20;;
17488;SDS011;8861;52.644;4.734;2022-09-29T12:22:50;1.10;;;1.07;;
17488;SDS011;8861;52.644;4.734;2022-09-29T12:25:19;1.10;;;1.10;;
17488;SDS011;8861;52.644;4.734;2022-09-29T12:27:51;1.10;;;1.10;;
17488;SDS011;8861;52.644;4.734;2022-09-29T12:30:22;1.30;;;1.20;;
17488;SDS011;8861;52.644;4.734;2022-09-29T12:32:55;2.17;;;1.80;;
17488;SDS011;8861;52.644;4.734;2022-09-29T12:35:28;1.30;;;1.20;;
17488;SDS011;8861;52.644;4.734;2022-09-29T12:38:01;1.70;;;1.43;;
17488;SDS011;8861;52.644;4.734;2022-09-29T12:40:40;2.20;;;2.00;;
17488;SDS011;8861;52.644;4.734;2022-09-29T12:43:12;3.03;;;2.37;;
17488;SDS011;8861;52.644;4.734;2022-09-29T12:45:43;2.23;;;2.03;;
17488;SDS011;8861;52.644;4.734;2022-09-29T12:48:22;1.60;;;1.50;;
17488;SDS011;8861;52.644;4.734;2022-09-29T12:50:59;1.73;;;1.50;;
17488;SDS011;8861;52.644;4.734;2022-09-29T12:53:30;1.50;;;1.40;;
17488;SDS011;8861;52.644;4.734;2022-09-29T12:56:01;1.60;;;1.50;;
17488;SDS011;8861;52.644;4.734;2022-09-29T12:58:34;2.03;;;1.50;;
17488;SDS011;8861;52.644;4.734;2022-09-29T13:01:16;1.30;;;1.20;;
17488;SDS011;8861;52.644;4.734;2022-09-29T13:04:11;1.40;;;1.30;;
17488;SDS011;8861;52.644;4.734;2022-09-29T13:10:20;1.60;;;1.50;;
17488;SDS011;8861;52.644;4.734;2022-09-29T13:13:09;1.43;;;1.00;;
17488;SDS011;8861;52.644;4.734;2022-09-29T13:16:04;1.40;;;1.30;;
17488;SDS011;8861;52.644;4.734;2022-09-29T13:18:52;1.20;;;1.10;;
17488;SDS011;8861;52.644;4.734;2022-09-29T13:21:50;1.40;;;1.20;;
17488;SDS011;8861;52.644;4.734;2022-09-29T13:24:28;1.30;;;1.20;;
17488;SDS011;8861;52.644;4.734;2022-09-29T13:27:14;1.30;;;1.20;;
17488;SDS011;8861;52.644;4.734;2022-09-29T13:29:57;1.77;;;1.37;;
17488;SDS011;8861;52.644;4.734;2022-09-29T13:32:31;1.27;;;1.17;;
17488;SDS011;8861;52.644;4.734;2022-09-29T13:35:09;1.40;;;1.30;;
17488;SDS011;8861;52.644;4.734;2022-09-29T13:37:42;1.40;;;1.30;;
17488;SDS011;8861;52.644;4.734;2022-09-29T13:40:17;1.30;;;1.20;;
17488;SDS011;8861;52.644;4.734;2022-09-29T13:42:47;1.23;;;1.13;;
17488;SDS011;8861;52.644;4.734;2022-09-29T13:45:18;1.40;;;1.30;;
17488;SDS011;8861;52.644;4.734;2022-09-29T13:54:28;1.10;;;1.10;;
17488;SDS011;8861;52.644;4.734;2022-09-29T13:57:05;1.13;;;1.13;;
17488;SDS011;8861;52.644;4.734;2022-09-29T14:02:46;1.40;;;1.30;;
17488;SDS011;8861;52.644;4.734;2022-09-29T14:08:35;1.13;;;1.13;;
17488;SDS011;8861;52.644;4.734;2022-09-29T14:11:12;1.30;;;1.20;;
17488;SDS011;8861;52.644;4.734;2022-09-29T14:13:45;1.30;;;1.20;;
17488;SDS011;8861;52.644;4.734;2022-09-29T14:16:21;2.27;;;1.20;;
17488;SDS011;8861;52.644;4.734;2022-09-29T14:18:59;1.30;;;1.20;;
17488;SDS011;8861;52.644;4.734;2022-09-29T14:21:46;1.40;;;1.30;;
17488;SDS011;8861;52.644;4.734;2022-09-29T14:27:17;1.70;;;1.37;;
17488;SDS011;8861;52.644;4.734;2022-09-29T14:29:49;2.60;;;1.37;;
17488;SDS011;8861;52.644;4.734;2022-09-29T14:32:20;0.97;;;0.90;;
17488;SDS011;8861;52.644;4.734;2022-09-29T14:34:53;1.33;;;1.20;;
17488;SDS011;8861;52.644;4.734;2022-09-29T14:37:21;1.20;;;1.10;;
17488;SDS011;8861;52.644;4.734;2022-09-29T14:39:49;1.27;;;0.90;;
17488;SDS011;8861;52.644;4.734;2022-09-29T14:42:32;0.97;;;0.97;;
17488;SDS011;8861;52.644;4.734;2022-09-29T14:45:00;1.20;;;1.10;;
17488;SDS011;8861;52.644;4.734;2022-09-29T14:47:48;0.90;;;0.90;;
17488;SDS011;8861;52.644;4.734;2022-09-29T14:50:41;0.93;;;0.87;;
17488;SDS011;8861;52.644;4.734;2022-09-29T14:53:44;1.00;;;1.00;;
17488;SDS011;8861;52.644;4.734;2022-09-29T14:56:32;1.57;;;1.10;;
17488;SDS011;8861;52.644;4.734;2022-09-29T14:59:13;1.27;;;1.20;;
17488;SDS011;8861;52.644;4.734;2022-09-29T15:01:58;1.20;;;1.10;;
17488;SDS011;8861;52.644;4.734;2022-09-29T15:04:46;1.27;;;1.20;;
17488;SDS011;8861;52.644;4.734;2022-09-29T15:07:15;1.20;;;1.20;;
17488;SDS011;8861;52.644;4.734;2022-09-29T15:09:46;1.17;;;1.10;;
17488;SDS011;8861;52.644;4.734;2022-09-29T15:12:17;1.30;;;1.20;;
17488;SDS011;8861;52.644;4.734;2022-09-29T15:14:47;2.00;;;1.20;;
17488;SDS011;8861;52.644;4.734;2022-09-29T15:17:28;1.40;;;1.30;;
17488;SDS011;8861;52.644;4.734;2022-09-29T15:20:04;1.33;;;1.10;;
17488;SDS011;8861;52.644;4.734;2022-09-29T15:22:40;1.20;;;1.20;;
17488;SDS011;8861;52.644;4.734;2022-09-29T15:25:18;1.30;;;1.20;;
17488;SDS011;8861;52.644;4.734;2022-09-29T15:27:53;1.17;;;1.07;;
17488;SDS011;8861;52.644;4.734;2022-09-29T15:30:25;1.23;;;1.13;;
17488;SDS011;8861;52.644;4.734;2022-09-29T15:32:53;1.50;;;1.20;;
17488;SDS011;8861;52.644;4.734;2022-09-29T15:35:45;1.33;;;1.23;;
17488;SDS011;8861;52.644;4.734;2022-09-29T15:38:24;1.13;;;1.13;;
17488;SDS011;8861;52.644;4.734;2022-09-29T15:40:59;1.20;;;1.10;;
17488;SDS011;8861;52.644;4.734;2022-09-29T15:43:28;1.20;;;1.10;;
17488;SDS011;8861;52.644;4.734;2022-09-29T15:46:12;1.30;;;1.20;;
17488;SDS011;8861;52.644;4.734;2022-09-29T15:48:49;1.40;;;1.30;;
17488;SDS011;8861;52.644;4.734;2022-09-29T15:51:32;1.40;;;1.30;;
17488;SDS011;8861;52.644;4.734;2022-09-29T15:54:00;1.40;;;1.30;;
17488;SDS011;8861;52.644;4.734;2022-09-29T15:56:28;1.30;;;1.30;;
17488;SDS011;8861;52.644;4.734;2022-09-29T15:58:56;1.03;;;1.00;;
17488;SDS011;8861;52.644;4.734;2022-09-29T16:01:24;1.50;;;1.40;;